Time;durP1;ratioP1;P1;durP2;ratioP2;P2;SDS_P1;SDS_P2;PMS_P1;PMS_P2;Temp;Humidity;BMP_temperature;BMP_pressure;BME280_temperature;BME280_humidity;BME280_pressure;Samples;Min_cycle;Max_cycle;Signal;HPM_P1;HPM_P2
2024/01/12 00:01:12;;;;;;;2.05;1.13;;;23.20;29.60;;;;;;5009323;28;20801;-61
2024/01/12 00:03:39;;;;;;;1.45;1.10;;;23.20;29.60;;;;;;5009585;28;20225;-60
2024/01/12 00:06:06;;;;;;;4.43;1.33;;;23.20;29.60;;;;;;5009125;28;20597;-62
2024/01/12 00:08:34;;;;;;;3.40;1.30;;;23.20;29.70;;;;;;5009257;28;20272;-61
2024/01/12 00:11:01;;;;;;;2.13;1.20;;;23.20;29.70;;;;;;5009170;28;20255;-60
2024/01/12 00:13:28;;;;;;;1.50;1.15;;;23.20;29.70;;;;;;5009065;28;20290;-61
2024/01/12 00:15:55;;;;;;;3.70;1.50;;;23.20;29.70;;;;;;5009035;28;20710;-61
2024/01/12 00:18:22;;;;;;;2.72;1.30;;;23.10;29.60;;;;;;5009245;28;20272;-61
2024/01/12 00:20:49;;;;;;;3.45;1.10;;;23.20;29.70;;;;;;5008917;28;20213;-61
2024/01/12 00:23:16;;;;;;;4.20;1.20;;;23.20;29.70;;;;;;5008965;28;20534;-61
2024/01/12 00:25:44;;;;;;;2.83;1.17;;;23.20;29.70;;;;;;5008835;28;20221;-60
2024/01/12 00:28:11;;;;;;;2.75;1.23;;;23.20;29.70;;;;;;5011686;28;20197;-61
2024/01/12 00:30:37;;;;;;;2.13;1.00;;;23.20;29.70;;;;;;5012483;28;20233;-61
2024/01/12 00:33:06;;;;;;;2.50;1.10;;;23.20;29.70;;;;;;5012135;28;20196;-61
2024/01/12 00:35:32;;;;;;;2.67;1.13;;;23.20;29.70;;;;;;5012181;28;20228;-61
2024/01/12 00:37:59;;;;;;;2.33;1.20;;;23.20;29.70;;;;;;5012421;28;20283;-61
2024/01/12 00:40:26;;;;;;;4.20;1.13;;;23.20;29.70;;;;;;5011965;28;20189;-61
2024/01/12 00:42:54;;;;;;;4.40;1.50;;;23.20;29.70;;;;;;5011820;28;20204;-62
2024/01/12 00:45:21;;;;;;;3.28;1.23;;;23.20;29.70;;;;;;5011848;28;20280;-61
2024/01/12 00:47:48;;;;;;;2.75;1.10;;;23.20;29.70;;;;;;5012115;28;20203;-61
2024/01/12 00:50:15;;;;;;;3.22;1.15;;;23.20;29.80;;;;;;5011692;28;20217;-61
2024/01/12 00:52:42;;;;;;;3.90;1.40;;;23.20;29.80;;;;;;5012071;28;20572;-61
2024/01/12 00:55:09;;;;;;;2.65;1.00;;;23.20;29.70;;;;;;5012190;28;20280;-60
2024/01/12 00:57:36;;;;;;;3.30;1.30;;;23.20;29.80;;;;;;5011875;28;20189;-61
2024/01/12 01:00:05;;;;;;;3.95;1.40;;;23.20;29.80;;;;;;5012093;28;20193;-61
2024/01/12 01:02:32;;;;;;;2.33;1.08;;;23.20;29.70;;;;;;5012252;28;20249;-61
2024/01/12 01:04:59;;;;;;;3.70;1.10;;;23.20;29.70;;;;;;5011697;28;20565;-61
2024/01/12 01:07:28;;;;;;;2.70;1.10;;;23.20;29.80;;;;;;5011879;28;20217;-61
2024/01/12 01:09:55;;;;;;;5.60;1.70;;;23.20;29.80;;;;;;5011858;28;20217;-60
2024/01/12 01:12:21;;;;;;;3.45;1.33;;;23.20;29.70;;;;;;5011297;28;20233;-61
2024/01/12 01:14:48;;;;;;;4.53;1.20;;;23.20;29.80;;;;;;5012345;28;20221;-60
2024/01/12 01:17:16;;;;;;;2.30;1.10;;;23.20;29.70;;;;;;5011953;28;20282;-60
2024/01/12 01:19:43;;;;;;;3.90;1.17;;;23.20;29.80;;;;;;5011393;28;20200;-61
2024/01/12 01:22:10;;;;;;;2.20;1.13;;;23.20;29.70;;;;;;5011523;28;20249;-61
2024/01/12 01:24:37;;;;;;;3.70;1.65;;;23.20;29.70;;;;;;5011693;28;20204;-61
2024/01/12 01:27:04;;;;;;;5.75;1.40;;;23.20;29.80;;;;;;5009337;28;20217;-61
2024/01/12 01:29:37;;;;;;;2.28;1.00;;;23.20;29.70;;;;;;4994081;28;20629;-61
2024/01/12 01:32:04;;;;;;;4.97;1.60;;;23.20;29.80;;;;;;5055483;28;20221;-60
2024/01/12 01:34:33;;;;;;;2.65;1.02;;;23.20;29.80;;;;;;4991651;28;20190;-61
2024/01/12 01:37:02;;;;;;;2.70;1.20;;;23.20;29.70;;;;;;4991884;28;20222;-61
2024/01/12 01:39:29;;;;;;;3.42;1.00;;;23.20;29.80;;;;;;4991363;28;20194;-61
2024/01/12 01:41:57;;;;;;;2.20;1.02;;;23.20;29.70;;;;;;4991728;28;20305;-61
2024/01/12 01:44:25;;;;;;;3.25;1.13;;;23.20;29.80;;;;;;4991847;28;20190;-60
2024/01/12 01:46:53;;;;;;;2.65;1.00;;;23.20;29.70;;;;;;4991945;28;20317;-60
2024/01/12 01:49:20;;;;;;;4.32;1.35;;;23.30;29.90;;;;;;4990793;28;20218;-60
2024/01/12 01:51:48;;;;;;;3.42;0.90;;;23.20;29.70;;;;;;4991481;28;20268;-62
2024/01/12 01:54:17;;;;;;;3.70;1.20;;;23.20;29.70;;;;;;4991701;28;20225;-61
2024/01/12 01:56:44;;;;;;;4.43;1.42;;;23.30;29.80;;;;;;4991481;28;20308;-61
2024/01/12 01:59:12;;;;;;;2.05;1.30;;;23.30;29.80;;;;;;4991642;28;20277;-59
2024/01/12 02:01:39;;;;;;;5.07;1.08;;;23.30;29.80;;;;;;4991721;28;20228;-61
2024/01/12 02:04:07;;;;;;;2.35;1.02;;;23.20;29.80;;;;;;4990926;28;20230;-61
2024/01/12 02:06:34;;;;;;;1.85;1.05;;;23.20;29.80;;;;;;4991237;28;20699;-61
2024/01/12 02:09:04;;;;;;;2.13;0.98;;;23.30;29.80;;;;;;4991557;28;20578;-61
2024/01/12 02:11:31;;;;;;;3.35;1.00;;;23.20;29.70;;;;;;4990867;28;20237;-60
2024/01/12 02:13:58;;;;;;;3.28;1.02;;;23.20;29.70;;;;;;4991087;28;20658;-61
2024/01/12 02:16:25;;;;;;;2.13;0.93;;;23.30;29.80;;;;;;4991134;28;20218;-61
2024/01/12 02:18:51;;;;;;;2.00;0.90;;;23.30;29.80;;;;;;4990712;28;20198;-61
2024/01/12 02:21:20;;;;;;;3.50;1.10;;;23.30;29.80;;;;;;4991353;28;20312;-60
2024/01/12 02:23:46;;;;;;;2.80;1.17;;;23.30;29.80;;;;;;4991258;28;20194;-61
2024/01/12 02:26:12;;;;;;;3.05;0.90;;;23.30;29.80;;;;;;4990501;28;20305;-61
2024/01/12 02:28:39;;;;;;;3.58;1.10;;;23.30;29.80;;;;;;4991245;28;20293;-61
2024/01/12 02:31:06;;;;;;;1.52;0.70;;;23.30;29.80;;;;;;4991014;28;20234;-61
2024/01/12 02:33:33;;;;;;;2.47;1.15;;;23.30;29.80;;;;;;4990835;28;20198;-61
2024/01/12 02:36:00;;;;;;;2.10;0.98;;;23.30;30.20;;;;;;4991001;28;20240;-61
2024/01/12 02:38:29;;;;;;;1.30;0.70;;;23.30;29.70;;;;;;4990884;28;20548;-61
2024/01/12 02:40:56;;;;;;;2.47;0.95;;;23.30;29.70;;;;;;4990698;28;20226;-61
2024/01/12 02:43:22;;;;;;;2.60;1.35;;;23.30;29.80;;;;;;4990946;28;20186;-60
2024/01/12 02:45:49;;;;;;;4.15;1.00;;;23.30;29.70;;;;;;4990536;28;20666;-61
2024/01/12 02:48:16;;;;;;;2.65;0.90;;;23.30;29.70;;;;;;4991003;28;20209;-60
2024/01/12 02:50:43;;;;;;;2.20;0.90;;;23.30;29.80;;;;;;4989731;28;20268;-61
2024/01/12 02:53:10;;;;;;;1.83;1.00;;;23.30;29.70;;;;;;4990870;28;20556;-60
2024/01/12 02:55:38;;;;;;;2.88;1.00;;;23.30;29.70;;;;;;4990106;28;20619;-61
2024/01/12 02:58:05;;;;;;;2.05;0.88;;;23.30;29.70;;;;;;4990438;28;20648;-61
2024/01/12 03:00:32;;;;;;;2.65;0.80;;;23.30;29.70;;;;;;4990316;28;20660;-61
2024/01/12 03:02:58;;;;;;;2.83;0.95;;;23.30;29.70;;;;;;4990382;28;20201;-60
2024/01/12 03:05:25;;;;;;;2.78;1.00;;;23.30;29.60;;;;;;4990433;28;20197;-59
2024/01/12 03:07:52;;;;;;;2.85;1.00;;;23.30;30.10;;;;;;4990633;28;20200;-61
2024/01/12 03:10:19;;;;;;;2.70;1.00;;;23.30;29.70;;;;;;4990159;28;20218;-61
2024/01/12 03:12:47;;;;;;;1.33;0.68;;;23.30;29.70;;;;;;4990169;28;20237;-62
2024/01/12 03:15:14;;;;;;;3.22;0.77;;;23.30;29.70;;;;;;4990502;28;20238;-61
2024/01/12 03:17:41;;;;;;;2.13;0.82;;;23.30;29.70;;;;;;4990068;28;20234;-61
2024/01/12 03:20:09;;;;;;;2.10;0.70;;;23.30;29.70;;;;;;4990652;28;20194;-61
2024/01/12 03:22:37;;;;;;;1.27;0.70;;;23.30;30.10;;;;;;4990807;28;20218;-62
2024/01/12 03:25:04;;;;;;;1.15;0.63;;;23.30;29.70;;;;;;4989962;28;20194;-61
2024/01/12 03:27:31;;;;;;;4.15;0.88;;;23.30;29.70;;;;;;4990274;28;20309;-61
2024/01/12 03:29:59;;;;;;;1.88;0.70;;;23.30;29.60;;;;;;4989936;28;20217;-61
2024/01/12 03:32:26;;;;;;;2.28;0.70;;;23.30;29.60;;;;;;4989859;28;20240;-61
2024/01/12 03:34:53;;;;;;;2.35;0.80;;;23.30;29.70;;;;;;4989897;28;20284;-61
2024/01/12 03:37:19;;;;;;;2.85;0.88;;;23.30;29.60;;;;;;4990170;28;20224;-61
2024/01/12 03:39:46;;;;;;;1.13;0.70;;;23.30;29.60;;;;;;4989649;28;20637;-60
2024/01/12 03:42:13;;;;;;;1.27;0.88;;;23.30;29.60;;;;;;4990337;28;20218;-62
2024/01/12 03:44:40;;;;;;;1.65;0.60;;;23.30;29.60;;;;;;4990434;28;20289;-61
2024/01/12 03:47:08;;;;;;;4.28;1.00;;;23.30;29.60;;;;;;4990101;28;20660;-61
2024/01/12 03:49:35;;;;;;;2.22;0.88;;;23.30;29.60;;;;;;4989537;28;20647;-61
2024/01/12 03:52:03;;;;;;;1.40;0.50;;;23.30;29.50;;;;;;4989914;28;20256;-61
2024/01/12 03:54:30;;;;;;;1.90;0.80;;;23.30;29.50;;;;;;4990040;28;20226;-61
2024/01/12 03:56:57;;;;;;;1.60;0.70;;;23.30;29.40;;;;;;4989904;28;20222;-61
2024/01/12 03:59:24;;;;;;;1.15;0.60;;;23.40;29.50;;;;;;4989980;28;20285;-61
2024/01/12 04:01:51;;;;;;;1.65;0.70;;;23.30;29.50;;;;;;4991067;28;20313;-61
2024/01/12 04:04:19;;;;;;;1.50;0.90;;;23.30;29.40;;;;;;4992785;28;20197;-61
2024/01/12 04:06:46;;;;;;;1.92;0.70;;;23.30;29.50;;;;;;4993358;28;20218;-60
2024/01/12 04:09:13;;;;;;;2.85;1.02;;;23.30;29.40;;;;;;4993004;28;20735;-60
2024/01/12 04:11:40;;;;;;;1.00;0.63;;;23.40;29.50;;;;;;4992850;28;20245;-61
2024/01/12 04:14:07;;;;;;;1.65;0.70;;;23.40;29.50;;;;;;4993141;28;20282;-61
2024/01/12 04:16:34;;;;;;;2.95;0.70;;;23.40;29.50;;;;;;4993176;28;20309;-61
2024/01/12 04:19:01;;;;;;;1.80;0.70;;;23.30;29.90;;;;;;4992795;28;20192;-60
2024/01/12 04:21:29;;;;;;;1.23;0.73;;;23.40;29.80;;;;;;4993144;28;20258;-60
2024/01/12 04:23:56;;;;;;;1.70;0.70;;;23.40;29.50;;;;;;4993061;28;20281;-61
2024/01/12 04:26:23;;;;;;;1.00;0.55;;;23.40;30.00;;;;;;4992563;28;20703;-60
2024/01/12 04:28:50;;;;;;;1.27;0.45;;;23.40;29.50;;;;;;4992998;28;20222;-61
2024/01/12 04:31:17;;;;;;;1.85;0.57;;;23.40;29.50;;;;;;4992826;28;20230;-60
2024/01/12 04:33:44;;;;;;;0.68;0.50;;;23.40;29.50;;;;;;4992601;28;20186;-60
2024/01/12 04:36:11;;;;;;;1.30;0.60;;;23.40;29.50;;;;;;4992814;28;20301;-61
2024/01/12 04:38:40;;;;;;;0.90;0.60;;;23.40;29.50;;;;;;4992792;28;20229;-61
2024/01/12 04:41:07;;;;;;;1.55;0.47;;;23.40;29.50;;;;;;4992190;28;20301;-61
2024/01/12 04:43:34;;;;;;;1.95;0.80;;;23.30;29.40;;;;;;4993013;28;20196;-61
2024/01/12 04:46:01;;;;;;;0.73;0.70;;;23.40;29.50;;;;;;4992623;28;20222;-61
2024/01/12 04:48:28;;;;;;;2.65;0.75;;;23.40;29.40;;;;;;4992213;28;20637;-61
2024/01/12 04:50:55;;;;;;;3.60;0.90;;;23.40;30.00;;;;;;4992169;28;20222;-61
2024/01/12 04:53:21;;;;;;;1.02;0.52;;;23.40;29.50;;;;;;4992576;28;20194;-61
2024/01/12 04:55:50;;;;;;;2.15;0.70;;;23.40;29.50;;;;;;4992376;28;20196;-61
2024/01/12 04:58:16;;;;;;;1.05;0.70;;;23.40;29.40;;;;;;4992551;28;20201;-61
2024/01/12 05:00:43;;;;;;;1.90;0.73;;;23.40;29.50;;;;;;4992619;28;20259;-62
2024/01/12 05:03:10;;;;;;;2.53;0.50;;;23.40;29.50;;;;;;4992394;28;20606;-61
2024/01/12 05:05:37;;;;;;;2.85;0.82;;;23.40;29.40;;;;;;4992177;28;20191;-60
2024/01/12 05:08:04;;;;;;;1.65;0.52;;;23.40;29.40;;;;;;4992431;28;20198;-59
2024/01/12 05:10:31;;;;;;;1.02;0.60;;;23.30;29.40;;;;;;4991946;28;20317;-61
2024/01/12 05:12:59;;;;;;;1.98;0.60;;;23.40;29.50;;;;;;4991175;28;20324;-60
2024/01/12 05:15:26;;;;;;;2.35;0.80;;;23.40;29.50;;;;;;4992552;28;20208;-61
2024/01/12 05:17:53;;;;;;;1.25;0.60;;;23.40;29.50;;;;;;4992259;28;20228;-59
2024/01/12 05:20:21;;;;;;;1.77;0.73;;;23.30;29.40;;;;;;4991885;28;20195;-61
2024/01/12 05:22:48;;;;;;;2.33;0.70;;;23.40;29.40;;;;;;4992103;28;20222;-61
2024/01/12 05:25:15;;;;;;;1.35;0.50;;;23.30;29.40;;;;;;4991787;28;20355;-61
2024/01/12 05:27:42;;;;;;;1.92;0.60;;;23.40;29.40;;;;;;4992341;28;20224;-61
2024/01/12 05:30:11;;;;;;;1.58;0.70;;;23.40;29.50;;;;;;4992050;28;20216;-61
2024/01/12 05:32:38;;;;;;;1.45;0.65;;;23.40;29.40;;;;;;4991583;28;20218;-60
2024/01/12 05:35:05;;;;;;;2.47;0.50;;;23.40;29.40;;;;;;4991960;28;20286;-60
2024/01/12 05:37:32;;;;;;;1.13;0.70;;;23.40;29.40;;;;;;4991955;28;20225;-61
2024/01/12 05:39:58;;;;;;;3.45;0.68;;;23.40;29.40;;;;;;4991613;28;20201;-61
2024/01/12 05:42:25;;;;;;;3.40;0.88;;;23.40;29.50;;;;;;4991578;28;20786;-61
2024/01/12 05:44:51;;;;;;;1.90;0.68;;;23.40;29.40;;;;;;4991499;28;20195;-61
2024/01/12 05:47:19;;;;;;;1.48;0.50;;;23.40;29.40;;;;;;4991568;28;20313;-61
2024/01/12 05:49:46;;;;;;;2.50;0.85;;;23.40;29.50;;;;;;4991774;28;20224;-61
2024/01/12 05:52:13;;;;;;;1.20;0.60;;;23.40;29.40;;;;;;4991472;28;20703;-61
2024/01/12 05:54:40;;;;;;;1.65;0.75;;;23.40;29.40;;;;;;4991071;28;20285;-62
2024/01/12 05:57:07;;;;;;;0.93;0.40;;;23.40;29.40;;;;;;4991722;28;20224;-62
2024/01/12 05:59:33;;;;;;;1.73;0.68;;;23.40;29.50;;;;;;4991647;28;20190;-58
2024/01/12 06:02:00;;;;;;;2.10;0.65;;;23.40;29.50;;;;;;4991475;28;20226;-61
2024/01/12 06:04:29;;;;;;;1.20;0.60;;;23.40;29.40;;;;;;4991635;28;20294;-61
2024/01/12 06:06:56;;;;;;;1.52;0.60;;;23.40;29.40;;;;;;4991561;28;20222;-61
2024/01/12 06:09:22;;;;;;;1.48;0.57;;;23.40;29.40;;;;;;4991199;28;20212;-61
2024/01/12 06:11:49;;;;;;;1.77;0.70;;;23.40;29.40;;;;;;4991113;28;20246;-62
2024/01/12 06:14:17;;;;;;;1.95;0.77;;;23.40;29.40;;;;;;4991311;28;20208;-61
2024/01/12 06:16:44;;;;;;;1.05;0.68;;;23.40;29.40;;;;;;4991096;28;20233;-62
2024/01/12 06:19:10;;;;;;;1.80;0.40;;;23.40;29.40;;;;;;4991322;28;20190;-61
2024/01/12 06:21:39;;;;;;;2.67;0.70;;;23.40;29.40;;;;;;4991318;28;20282;-62
2024/01/12 06:24:06;;;;;;;2.70;0.50;;;23.40;29.40;;;;;;4990885;28;20194;-61
2024/01/12 06:26:33;;;;;;;2.47;0.52;;;23.40;29.40;;;;;;4991151;28;20224;-62
2024/01/12 06:28:59;;;;;;;2.22;0.70;;;23.40;29.50;;;;;;4991305;28;20197;-61
2024/01/12 06:31:30;;;;;;;1.77;0.60;;;23.40;29.50;;;;;;4990865;28;20230;-61
2024/01/12 06:33:57;;;;;;;1.90;0.63;;;23.40;29.40;;;;;;4991152;28;20190;-61
2024/01/12 06:36:24;;;;;;;0.95;0.70;;;23.40;29.40;;;;;;4990923;28;20232;-61
2024/01/12 06:38:52;;;;;;;0.82;0.50;;;23.40;29.40;;;;;;4990740;28;20201;-61
2024/01/12 06:41:20;;;;;;;1.27;0.50;;;23.40;29.40;;;;;;4990931;28;20651;-60
2024/01/12 06:43:47;;;;;;;2.00;0.73;;;23.40;29.40;;;;;;4990774;28;20200;-61
2024/01/12 06:46:13;;;;;;;1.38;0.50;;;23.40;29.40;;;;;;4990936;28;20308;-59
2024/01/12 06:48:40;;;;;;;1.60;0.57;;;23.40;30.00;;;;;;4990759;28;20281;-61
2024/01/12 06:51:07;;;;;;;1.60;0.60;;;23.40;30.00;;;;;;4990394;28;20597;-60
2024/01/12 06:53:34;;;;;;;2.28;0.40;;;23.40;29.40;;;;;;4990131;28;20204;-62
2024/01/12 06:56:03;;;;;;;2.22;0.70;;;23.40;29.50;;;;;;4990680;28;20218;-61
2024/01/12 06:58:30;;;;;;;0.88;0.50;;;23.40;29.40;;;;;;4990828;28;20197;-61
2024/01/12 07:00:58;;;;;;;1.55;0.50;;;23.40;29.40;;;;;;4990368;28;20205;-60
2024/01/12 07:03:25;;;;;;;2.08;0.65;;;23.40;29.50;;;;;;4990677;28;20201;-61
2024/01/12 07:05:52;;;;;;;1.45;0.60;;;23.40;29.40;;;;;;4990564;28;20280;-61
2024/01/12 07:08:19;;;;;;;2.40;0.70;;;23.40;29.50;;;;;;4990316;28;20193;-62
2024/01/12 07:10:46;;;;;;;2.63;0.73;;;23.40;29.50;;;;;;4990289;28;20272;-60
2024/01/12 07:13:15;;;;;;;1.75;0.90;;;23.40;29.40;;;;;;4990259;28;20218;-61
2024/01/12 07:15:41;;;;;;;1.80;0.70;;;23.40;29.40;;;;;;4990712;28;20198;-61
2024/01/12 07:18:08;;;;;;;2.53;0.90;;;23.40;29.50;;;;;;4990694;28;20629;-61
2024/01/12 07:20:35;;;;;;;1.45;0.70;;;23.40;29.40;;;;;;4990038;28;20651;-62
2024/01/12 07:23:02;;;;;;;1.20;0.50;;;23.40;29.40;;;;;;4990348;28;20222;-60
2024/01/12 07:25:29;;;;;;;2.63;0.63;;;23.40;29.40;;;;;;4990323;28;20198;-62
2024/01/12 07:27:56;;;;;;;2.45;0.70;;;23.50;29.50;;;;;;4990543;28;20214;-61
2024/01/12 07:30:24;;;;;;;1.70;0.70;;;23.40;29.50;;;;;;4990289;28;20295;-62
2024/01/12 07:32:51;;;;;;;2.15;0.90;;;23.40;30.00;;;;;;5003014;28;20328;-57
2024/01/12 07:35:18;;;;;;;2.13;1.00;;;23.40;29.50;;;;;;5008363;28;20193;-61
2024/01/12 07:37:45;;;;;;;0.80;0.43;;;23.40;29.40;;;;;;5007733;28;20220;-60
2024/01/12 07:40:12;;;;;;;1.98;0.80;;;23.40;29.50;;;;;;5009390;28;20565;-61
2024/01/12 07:42:39;;;;;;;2.38;0.93;;;23.40;29.40;;;;;;5009344;28;20304;-61
2024/01/12 07:45:06;;;;;;;1.40;0.60;;;23.50;29.50;;;;;;5009345;28;20194;-60
2024/01/12 07:47:35;;;;;;;1.33;0.60;;;23.40;29.40;;;;;;5009671;28;20299;-61
2024/01/12 07:50:01;;;;;;;1.73;0.80;;;23.40;29.40;;;;;;5009471;28;20189;-61
2024/01/12 07:52:28;;;;;;;2.17;1.10;;;23.40;29.40;;;;;;4997027;28;20709;-61
2024/01/12 07:54:55;;;;;;;2.22;0.82;;;23.40;29.40;;;;;;4996053;28;20297;-61
2024/01/12 07:57:22;;;;;;;4.78;1.23;;;23.40;29.40;;;;;;4994307;28;20217;-61
2024/01/12 07:59:49;;;;;;;2.75;1.20;;;23.30;29.40;;;;;;5017677;28;20289;-62
2024/01/12 08:02:16;;;;;;;1.92;0.75;;;23.30;29.50;;;;;;5091009;28;20297;-61
2024/01/12 08:04:44;;;;;;;2.90;0.90;;;23.30;29.80;;;;;;5029249;28;20676;-61
2024/01/12 08:07:11;;;;;;;3.72;0.80;;;23.30;30.00;;;;;;4993230;28;20218;-60
2024/01/12 08:09:38;;;;;;;2.65;0.95;;;23.40;30.20;;;;;;5002994;28;20193;-61
2024/01/12 08:12:05;;;;;;;4.38;1.10;;;23.30;30.20;;;;;;5001770;28;20299;-61
2024/01/12 08:14:31;;;;;;;2.13;0.73;;;23.30;30.40;;;;;;5003781;28;20208;-56
2024/01/12 08:16:58;;;;;;;3.50;1.00;;;23.30;30.40;;;;;;5000997;28;20304;-60
2024/01/12 08:19:29;;;;;;;6.05;1.15;;;23.30;30.50;;;;;;5006945;28;20294;-61
2024/01/12 08:22:01;;;;;;;5.50;1.10;;;23.40;30.50;;;;;;5007142;28;20276;-62
2024/01/12 08:24:28;;;;;;;6.15;1.00;;;23.40;30.50;;;;;;5012528;28;20720;-59
2024/01/12 08:26:55;;;;;;;2.88;1.05;;;23.30;30.30;;;;;;5006826;28;20221;-55
2024/01/12 08:29:25;;;;;;;4.30;1.20;;;23.40;30.50;;;;;;5009498;28;20197;-60
2024/01/12 08:31:52;;;;;;;3.53;1.20;;;23.40;30.60;;;;;;5007947;28;20615;-61
2024/01/12 08:34:25;;;;;;;2.20;0.90;;;23.40;30.50;;;;;;5008236;28;20225;-60
2024/01/12 08:37:06;;;;;;;9.35;1.30;;;23.40;30.50;;;;;;5007288;28;20274;-62
2024/01/12 08:39:33;;;;;;;7.25;1.35;;;23.40;30.60;;;;;;5008237;28;20267;-59
2024/01/12 08:42:10;;;;;;;4.05;1.27;;;23.40;30.60;;;;;;5007976;28;20217;-60
2024/01/12 08:44:43;;;;;;;5.47;1.20;;;23.40;30.70;;;;;;5006263;28;20246;-55
2024/01/12 08:47:11;;;;;;;3.30;1.20;;;23.40;30.80;;;;;;5006634;28;20273;-61
2024/01/12 08:49:38;;;;;;;6.55;1.00;;;23.40;30.80;;;;;;5000799;28;20209;-62
2024/01/12 08:52:06;;;;;;;2.17;0.90;;;23.40;30.80;;;;;;5008948;28;20228;-60
2024/01/12 08:54:40;;;;;;;3.65;0.98;;;23.40;30.70;;;;;;5017518;28;20208;-60
2024/01/12 08:57:19;;;;;;;4.13;1.23;;;23.40;30.70;;;;;;5006597;28;20224;-61
2024/01/12 08:59:46;;;;;;;4.35;1.52;;;23.40;30.70;;;;;;5008916;28;20250;-60
2024/01/12 09:02:22;;;;;;;4.03;1.27;;;23.40;30.70;;;;;;5003676;28;20220;-59
2024/01/12 09:04:52;;;;;;;3.50;0.85;;;23.40;30.70;;;;;;5003432;28;20205;-57
2024/01/12 09:07:21;;;;;;;7.47;1.38;;;23.40;30.60;;;;;;5009912;28;20213;-60
2024/01/12 09:09:49;;;;;;;2.85;1.25;;;23.40;30.60;;;;;;5003729;28;20304;-55
2024/01/12 09:12:17;;;;;;;4.72;1.00;;;23.40;30.60;;;;;;5009870;28;20241;-56
2024/01/12 09:14:44;;;;;;;5.45;1.20;;;23.40;30.60;;;;;;5010419;28;20216;-56
2024/01/12 09:17:12;;;;;;;3.80;1.45;;;23.40;30.50;;;;;;5009637;28;20308;-58
2024/01/12 09:19:40;;;;;;;5.00;1.65;;;23.40;30.50;;;;;;5009514;28;20201;-60
2024/01/12 09:22:07;;;;;;;5.53;1.10;;;23.40;30.40;;;;;;4994337;28;20228;-58
2024/01/12 09:24:36;;;;;;;6.00;1.80;;;23.40;30.40;;;;;;5006550;28;20205;-59
2024/01/12 09:27:03;;;;;;;7.43;1.50;;;23.40;30.30;;;;;;5007582;28;20250;-56
2024/01/12 09:29:30;;;;;;;8.95;1.55;;;23.50;30.50;;;;;;5000702;28;20186;-60
2024/01/12 09:31:57;;;;;;;3.55;1.38;;;23.50;30.70;;;;;;5009542;28;20217;-58
2024/01/12 09:34:24;;;;;;;7.60;1.60;;;23.50;30.90;;;;;;5012565;28;20301;-63
2024/01/12 09:36:51;;;;;;;4.90;1.33;;;23.40;30.80;;;;;;5006413;28;20285;-61
2024/01/12 09:39:18;;;;;;;7.00;1.70;;;23.40;31.00;;;;;;5003543;28;20312;-64
2024/01/12 09:41:48;;;;;;;12.82;1.98;;;23.40;31.70;;;;;;5010084;28;20280;-62
2024/01/12 09:44:19;;;;;;;10.77;2.10;;;23.40;31.70;;;;;;5010121;28;20248;-58
2024/01/12 09:46:54;;;;;;;6.20;1.58;;;23.40;32.00;;;;;;5010818;28;20198;-62
2024/01/12 09:49:24;;;;;;;4.45;1.40;;;23.40;31.70;;;;;;5009201;28;20220;-62
2024/01/12 09:51:51;;;;;;;7.00;1.38;;;23.40;31.10;;;;;;5009104;28;20691;-62
2024/01/12 09:54:19;;;;;;;3.80;1.25;;;23.30;30.80;;;;;;5010391;28;20262;-62
2024/01/12 09:56:48;;;;;;;5.85;1.48;;;23.30;31.00;;;;;;5007289;28;20671;-62
2024/01/12 09:59:17;;;;;;;4.35;1.50;;;23.20;31.00;;;;;;5008774;28;20312;-62
2024/01/12 10:01:44;;;;;;;6.25;1.75;;;23.20;30.80;;;;;;5010590;28;20196;-60
2024/01/12 10:04:15;;;;;;;6.40;1.58;;;23.20;30.80;;;;;;5008450;28;20235;-60
2024/01/12 10:06:42;;;;;;;8.95;1.60;;;23.20;30.80;;;;;;5044548;28;20201;-61
2024/01/12 10:09:27;;;;;;;10.40;1.60;;;23.10;30.70;;;;;;5008422;28;20224;-59
2024/01/12 10:12:03;;;;;;;6.72;1.17;;;23.10;30.80;;;;;;5009282;28;20233;-60
2024/01/12 10:14:30;;;;;;;6.03;1.75;;;23.10;30.70;;;;;;5010571;28;20220;-59
2024/01/12 10:16:58;;;;;;;8.45;1.90;;;23.10;31.30;;;;;;5010577;28;20193;-62
2024/01/12 10:19:48;;;;;;;10.23;1.60;;;23.10;30.90;;;;;;5002471;28;20242;-62
2024/01/12 10:22:16;;;;;;;12.95;1.80;;;23.00;31.30;;;;;;4987126;28;20309;-61
2024/01/12 10:25:16;;;;;;;8.45;1.63;;;23.00;31.20;;;;;;5003626;28;20267;-61
2024/01/12 10:28:01;;;;;;;5.60;1.55;;;23.00;31.30;;;;;;5000228;28;20627;-56
2024/01/12 10:30:32;;;;;;;8.05;1.85;;;23.00;31.10;;;;;;5008914;28;20216;-57
2024/01/12 10:33:28;;;;;;;4.75;1.40;;;23.00;31.00;;;;;;4999478;28;20244;-60
2024/01/12 10:36:16;;;;;;;5.10;1.40;;;23.00;31.00;;;;;;5002511;28;20751;-62
2024/01/12 10:39:05;;;;;;;7.85;1.50;;;23.00;31.00;;;;;;4988851;28;20292;-56
2024/01/12 10:41:34;;;;;;;4.97;1.52;;;23.00;31.00;;;;;;5002932;28;20262;-57
2024/01/12 10:44:22;;;;;;;5.75;1.63;;;22.90;30.90;;;;;;5007707;28;20225;-53
2024/01/12 10:46:50;;;;;;;13.32;2.45;;;22.90;31.10;;;;;;5009001;28;20193;-49
2024/01/12 10:49:18;;;;;;;8.68;1.85;;;22.90;31.10;;;;;;5005289;28;20218;-60
2024/01/12 10:51:56;;;;;;;6.85;1.90;;;22.90;31.30;;;;;;5008322;28;20254;-59
2024/01/12 10:54:29;;;;;;;8.85;1.83;;;23.00;31.30;;;;;;5007463;28;20221;-50
2024/01/12 10:57:01;;;;;;;9.73;2.13;;;22.90;31.30;;;;;;4997511;28;20620;-64
2024/01/12 10:59:32;;;;;;;5.95;1.70;;;22.90;31.00;;;;;;4987117;28;20229;-58
2024/01/12 11:02:02;;;;;;;9.07;1.55;;;22.90;30.90;;;;;;5002311;28;20216;-58
2024/01/12 11:04:30;;;;;;;6.72;1.77;;;22.90;30.90;;;;;;5007622;28;20229;-60
2024/01/12 11:07:02;;;;;;;5.88;1.48;;;22.90;31.00;;;;;;5009296;28;20242;-62
2024/01/12 11:09:29;;;;;;;6.40;1.40;;;22.90;30.90;;;;;;4999043;28;20217;-56
2024/01/12 11:12:03;;;;;;;7.22;1.90;;;22.90;30.80;;;;;;5001387;28;20234;-62
2024/01/12 11:14:31;;;;;;;8.48;1.83;;;22.90;31.00;;;;;;5007627;28;20270;-61
2024/01/12 11:16:59;;;;;;;7.45;1.85;;;22.90;31.00;;;;;;5008300;28;20721;-65
2024/01/12 11:19:27;;;;;;;5.50;1.67;;;23.00;31.10;;;;;;5010090;28;20305;-61
2024/01/12 11:22:03;;;;;;;4.00;1.52;;;23.00;31.00;;;;;;5007139;28;20193;-61
2024/01/12 11:24:31;;;;;;;9.30;1.90;;;23.10;31.70;;;;;;5003642;28;20716;-59
2024/01/12 11:26:59;;;;;;;6.63;1.80;;;23.10;31.00;;;;;;5008251;28;20272;-61
2024/01/12 11:29:31;;;;;;;8.70;1.85;;;23.20;31.00;;;;;;4999946;28;20308;-62
2024/01/12 11:32:02;;;;;;;6.93;1.88;;;23.20;31.00;;;;;;5003505;28;20662;-59
2024/01/12 11:34:33;;;;;;;10.70;1.98;;;23.30;31.00;;;;;;5003521;28;20217;-62
2024/01/12 11:37:01;;;;;;;6.50;1.40;;;23.30;30.90;;;;;;5008199;28;20584;-62
2024/01/12 11:39:33;;;;;;;10.52;1.83;;;23.30;31.00;;;;;;5005872;28;20225;-62
2024/01/12 11:42:02;;;;;;;6.50;2.10;;;23.30;30.80;;;;;;5007995;28;20217;-58
2024/01/12 11:44:29;;;;;;;7.40;2.00;;;23.40;30.80;;;;;;4999656;28;20301;-58
2024/01/12 11:46:57;;;;;;;5.95;1.77;;;23.40;30.80;;;;;;4992969;28;20236;-62
2024/01/12 11:49:25;;;;;;;8.25;1.98;;;23.40;30.80;;;;;;5007192;28;20217;-62
2024/01/12 11:52:02;;;;;;;7.57;1.60;;;23.40;30.80;;;;;;5013851;28;20701;-56
2024/01/12 11:54:29;;;;;;;6.05;1.55;;;23.40;30.80;;;;;;5015936;28;20219;-57
2024/01/12 11:56:56;;;;;;;5.45;1.70;;;23.40;30.80;;;;;;5015184;28;20201;-62
2024/01/12 11:59:24;;;;;;;8.95;1.95;;;23.50;30.90;;;;;;5005870;28;20248;-61
2024/01/12 12:01:51;;;;;;;9.15;2.05;;;23.50;30.80;;;;;;5008448;28;20270;-60
2024/01/12 12:04:19;;;;;;;5.32;1.83;;;23.50;30.80;;;;;;5004935;28;20307;-62
2024/01/12 12:06:47;;;;;;;8.82;1.80;;;23.50;30.90;;;;;;5006704;28;20272;-61
2024/01/12 12:09:14;;;;;;;6.97;2.05;;;23.50;30.80;;;;;;4988319;28;20704;-61
2024/01/12 12:11:41;;;;;;;8.18;1.90;;;23.50;30.90;;;;;;4987500;28;20236;-59
2024/01/12 12:14:09;;;;;;;7.60;1.98;;;23.50;30.80;;;;;;4994743;28;20240;-62
2024/01/12 12:16:36;;;;;;;6.68;2.00;;;23.60;30.90;;;;;;4996963;28;20213;-62
2024/01/12 12:19:04;;;;;;;8.93;1.88;;;23.50;30.80;;;;;;4998437;28;20258;-52
2024/01/12 12:21:33;;;;;;;6.93;1.80;;;23.60;30.90;;;;;;5003979;28;20262;-59
2024/01/12 12:24:00;;;;;;;7.38;1.80;;;23.60;30.90;;;;;;5008978;28;20209;-58
2024/01/12 12:26:27;;;;;;;7.75;1.95;;;23.60;30.90;;;;;;4997411;28;20667;-57
2024/01/12 12:28:56;;;;;;;6.95;1.70;;;23.60;30.80;;;;;;5008006;28;20201;-62
2024/01/12 12:31:22;;;;;;;5.05;1.70;;;23.60;30.80;;;;;;4996433;28;20296;-62
2024/01/12 12:33:49;;;;;;;8.57;1.83;;;23.60;30.80;;;;;;4998593;28;20308;-59
2024/01/12 12:36:17;;;;;;;10.63;2.40;;;23.60;30.90;;;;;;5006391;28;20305;-57
2024/01/12 12:38:46;;;;;;;6.95;2.05;;;23.60;30.80;;;;;;5008134;28;20189;-60
2024/01/12 12:41:13;;;;;;;5.57;1.90;;;23.60;30.90;;;;;;5001130;28;20312;-57
2024/01/12 12:43:40;;;;;;;5.55;1.77;;;23.60;30.90;;;;;;4999755;28;20442;-60
2024/01/12 12:46:08;;;;;;;4.60;1.60;;;23.60;30.80;;;;;;5005863;28;20298;-62
2024/01/12 12:48:35;;;;;;;5.53;1.65;;;23.60;30.80;;;;;;5009080;28;20288;-62
2024/01/12 12:51:02;;;;;;;6.70;2.03;;;23.60;30.90;;;;;;5010651;28;20304;-62